createdAt,value
2019-05-15T00:00:22.700Z,14.72
2019-05-15T00:02:52.062Z,14.70
2019-05-15T00:05:21.385Z,14.69
2019-05-15T00:07:50.746Z,14.68
2019-05-15T00:10:20.091Z,14.69
2019-05-15T00:12:49.443Z,14.69
2019-05-15T00:15:18.811Z,14.67
2019-05-15T00:17:48.660Z,14.67
2019-05-15T00:20:20.174Z,14.66
2019-05-15T00:22:49.063Z,14.60
2019-05-15T00:25:18.948Z,14.58
2019-05-15T00:27:49.127Z,14.56
2019-05-15T00:30:18.579Z,14.51
2019-05-15T00:32:48.747Z,14.47
2019-05-15T00:35:18.519Z,14.45
2019-05-15T00:37:49.242Z,14.43
2019-05-15T00:40:18.851Z,14.41
2019-05-15T00:42:48.870Z,14.41
2019-05-15T00:45:18.749Z,14.41
2019-05-15T00:47:48.643Z,14.37
2019-05-15T00:50:18.450Z,14.34
2019-05-15T00:52:48.444Z,14.25
2019-05-15T00:55:19.212Z,14.25
2019-05-15T00:57:48.741Z,14.29
2019-05-15T01:00:28.194Z,14.29
2019-05-15T01:02:57.862Z,14.26
2019-05-15T01:05:28.033Z,14.23
2019-05-15T01:07:58.695Z,14.24
2019-05-15T01:10:28.719Z,14.20
2019-05-15T01:12:58.476Z,14.15
2019-05-15T01:15:29.030Z,14.13
2019-05-15T01:17:58.388Z,14.16
2019-05-15T01:20:28.568Z,14.13
2019-05-15T01:22:59.143Z,14.13
2019-05-15T01:25:28.590Z,14.11
2019-05-15T01:27:58.320Z,14.11
2019-05-15T01:30:28.624Z,14.10
2019-05-15T01:32:59.222Z,14.10
2019-05-15T01:35:28.824Z,14.05
2019-05-15T01:37:58.632Z,14.06
2019-05-15T01:40:28.921Z,14.02
2019-05-15T01:42:58.413Z,13.94
2019-05-15T01:45:28.792Z,13.94
2019-05-15T01:47:58.627Z,13.96
2019-05-15T01:50:29.241Z,13.93
2019-05-15T01:52:58.652Z,13.96
2019-05-15T01:55:29.783Z,13.94
2019-05-15T01:57:59.113Z,13.90
2019-05-15T02:00:28.434Z,13.89
2019-05-15T02:02:58.730Z,13.89
2019-05-15T02:05:28.355Z,13.85
2019-05-15T02:07:58.501Z,13.83
2019-05-15T02:10:29.166Z,13.80
2019-05-15T02:12:58.874Z,13.80
2019-05-15T02:15:28.654Z,13.81
2019-05-15T02:17:58.803Z,13.81
2019-05-15T02:20:29.157Z,13.80
2019-05-15T02:22:59.077Z,13.77
2019-05-15T02:25:28.484Z,13.77
2019-05-15T02:27:58.728Z,13.69
2019-05-15T02:30:33.357Z,13.69
2019-05-15T02:32:59.342Z,13.66
2019-05-15T02:35:29.609Z,13.66
2019-05-15T02:37:59.794Z,13.64
2019-05-15T02:40:29.631Z,13.61
2019-05-15T02:42:59.284Z,13.59
2019-05-15T02:45:30.094Z,13.54
2019-05-15T02:47:59.789Z,13.51
2019-05-15T02:50:29.407Z,13.48
2019-05-15T02:53:00.566Z,13.45
2019-05-15T02:55:29.895Z,13.43
2019-05-15T02:57:59.261Z,13.43
2019-05-15T03:00:37.873Z,13.39
2019-05-15T03:03:00.316Z,13.36
2019-05-15T03:05:29.732Z,13.34
2019-05-15T03:07:59.539Z,13.30
2019-05-15T03:10:29.683Z,13.27
2019-05-15T03:13:00.140Z,13.25
2019-05-15T03:15:29.680Z,13.22
2019-05-15T03:18:00.410Z,13.21
2019-05-15T03:20:30.892Z,13.17
2019-05-15T03:23:00.219Z,13.17
2019-05-15T03:25:29.860Z,13.13
2019-05-15T03:27:59.669Z,13.07
2019-05-15T03:30:32.355Z,13.04
2019-05-15T03:33:03.795Z,13.03
2019-05-15T03:35:33.556Z,13.00
2019-05-15T03:38:02.951Z,12.96
2019-05-15T03:40:32.275Z,12.95
2019-05-15T03:43:01.611Z,12.92
2019-05-15T03:45:30.951Z,12.89
2019-05-15T03:48:00.303Z,12.84
2019-05-15T03:50:29.721Z,12.84
2019-05-15T03:52:59.052Z,12.80
2019-05-15T03:55:29.677Z,12.76
2019-05-15T03:57:59.353Z,12.73
2019-05-15T04:00:30.120Z,12.70
2019-05-15T04:02:59.754Z,12.66
2019-05-15T04:05:29.433Z,12.63
2019-05-15T04:07:59.957Z,12.60
2019-05-15T04:10:29.414Z,12.57
2019-05-15T04:13:00.031Z,12.55
2019-05-15T04:15:30.271Z,12.54
2019-05-15T04:18:00.459Z,12.50
2019-05-15T04:20:29.974Z,12.50
2019-05-15T04:23:00.326Z,12.46
2019-05-15T04:25:30.193Z,12.44
2019-05-15T04:28:01.584Z,12.42
2019-05-15T04:30:31.080Z,12.40
2019-05-15T04:33:00.445Z,12.39
2019-05-15T04:35:29.810Z,12.37
2019-05-15T04:37:59.889Z,12.36
2019-05-15T04:40:29.915Z,12.33
2019-05-15T04:42:59.486Z,12.33
2019-05-15T04:45:34.726Z,12.32
2019-05-15T04:47:59.859Z,12.29
2019-05-15T04:50:29.267Z,12.28
2019-05-15T04:52:59.247Z,12.27
2019-05-15T04:55:29.210Z,12.25
2019-05-15T04:57:59.429Z,12.24
2019-05-15T05:00:59.856Z,12.23
2019-05-15T05:03:29.595Z,12.20
2019-05-15T05:06:01.005Z,12.19
2019-05-15T05:08:30.314Z,12.16
2019-05-15T05:10:59.667Z,12.16
2019-05-15T05:13:29.023Z,12.15
2019-05-15T05:15:58.843Z,12.13
2019-05-15T05:18:29.741Z,12.11
2019-05-15T05:20:59.320Z,12.10
2019-05-15T05:23:29.184Z,12.07
2019-05-15T05:25:58.539Z,12.10
2019-05-15T05:28:28.909Z,12.10
2019-05-15T05:30:58.933Z,12.10
2019-05-15T05:33:28.766Z,12.10
2019-05-15T05:35:58.517Z,12.09
2019-05-15T05:38:28.329Z,12.05
2019-05-15T05:40:58.685Z,12.04
2019-05-15T05:43:29.988Z,11.98
2019-05-15T05:45:59.397Z,12.01
2019-05-15T05:48:29.271Z,12.01
2019-05-15T05:50:58.700Z,12.00
2019-05-15T05:53:28.734Z,11.98
2019-05-15T05:55:58.259Z,11.98
2019-05-15T05:58:29.692Z,11.93
2019-05-15T06:00:58.807Z,11.93
2019-05-15T06:03:28.297Z,11.99
2019-05-15T06:05:59.061Z,12.00
2019-05-15T06:08:28.650Z,12.00
2019-05-15T06:10:58.467Z,12.02
2019-05-15T06:13:29.116Z,12.01
2019-05-15T06:15:59.088Z,11.99
2019-05-15T06:18:28.643Z,12.01
2019-05-15T06:20:58.731Z,12.02
2019-05-15T06:23:35.067Z,12.02
2019-05-15T06:25:59.481Z,12.04
2019-05-15T06:28:29.353Z,12.06
2019-05-15T06:31:00.654Z,12.09
2019-05-15T06:33:29.884Z,12.09
2019-05-15T06:35:59.388Z,12.10
2019-05-15T06:38:31.023Z,12.13
2019-05-15T06:40:59.988Z,12.15
2019-05-15T06:43:29.368Z,12.17
2019-05-15T06:45:58.711Z,12.19
2019-05-15T06:48:28.850Z,12.21
2019-05-15T06:50:58.386Z,12.23
2019-05-15T06:53:29.030Z,12.26
2019-05-15T06:55:58.681Z,12.30
2019-05-15T06:58:28.973Z,12.33
2019-05-15T07:00:59.213Z,12.36
2019-05-15T07:03:29.603Z,12.38
2019-05-15T07:05:59.985Z,12.39
2019-05-15T07:08:29.445Z,12.43
2019-05-15T07:10:58.873Z,12.46
2019-05-15T07:13:29.002Z,12.47
2019-05-15T07:15:58.706Z,12.50
2019-05-15T07:18:28.490Z,12.53
2019-05-15T07:20:58.203Z,12.57
2019-05-15T07:23:30.619Z,12.61
2019-05-15T07:25:58.936Z,12.65
2019-05-15T07:28:28.815Z,12.69
2019-05-15T07:30:58.520Z,12.72
2019-05-15T07:33:36.854Z,12.76
2019-05-15T07:35:59.241Z,12.79
2019-05-15T07:38:30.843Z,12.82
2019-05-15T07:41:04.294Z,12.86
2019-05-15T07:43:31.261Z,12.92
2019-05-15T07:46:00.586Z,12.96
2019-05-15T07:48:29.924Z,13.01
2019-05-15T07:50:59.578Z,13.06
2019-05-15T07:53:29.121Z,13.11
2019-05-15T07:56:01.148Z,13.16
2019-05-15T07:58:32.068Z,13.21
2019-05-15T08:01:05.199Z,13.24
2019-05-15T08:03:32.497Z,13.29
2019-05-15T08:06:03.122Z,13.33
2019-05-15T08:08:32.616Z,13.38
2019-05-15T08:11:16.386Z,13.43
2019-05-15T08:13:33.035Z,13.49
2019-05-15T08:16:02.398Z,13.54
2019-05-15T08:18:31.735Z,13.59
2019-05-15T08:21:01.113Z,13.66
2019-05-15T08:23:30.471Z,13.73
2019-05-15T08:25:59.821Z,13.78
2019-05-15T08:28:31.483Z,13.91
2019-05-15T08:31:00.783Z,13.97
2019-05-15T08:33:30.278Z,14.02
2019-05-15T08:35:59.654Z,14.02
2019-05-15T08:38:29.123Z,14.12
2019-05-15T08:40:59.183Z,14.37
2019-05-15T08:43:31.240Z,14.37
2019-05-15T08:45:59.845Z,14.48
2019-05-15T08:48:29.203Z,14.58
2019-05-15T08:50:58.568Z,14.68
2019-05-15T08:53:28.529Z,14.78
2019-05-15T08:55:58.832Z,14.88
2019-05-15T08:58:29.097Z,14.95
2019-05-15T09:00:59.036Z,15.04
2019-05-15T09:03:28.768Z,15.12
2019-05-15T09:05:58.959Z,15.19
2019-05-15T09:08:29.297Z,15.27
2019-05-15T09:10:58.904Z,15.34
2019-05-15T09:13:29.304Z,15.41
2019-05-15T09:15:59.072Z,15.49
2019-05-15T09:18:28.585Z,15.58
2019-05-15T09:20:59.293Z,15.66
2019-05-15T09:23:29.229Z,15.73
2019-05-15T09:25:58.715Z,15.79
2019-05-15T09:28:29.583Z,15.89
2019-05-15T09:30:59.298Z,15.94
2019-05-15T09:33:28.833Z,16.00
2019-05-15T09:35:58.513Z,16.06
2019-05-15T09:38:29.003Z,16.12
2019-05-15T09:40:58.764Z,16.16
2019-05-15T09:43:28.644Z,16.22
2019-05-15T09:45:58.426Z,16.27
2019-05-15T09:48:28.697Z,16.34
2019-05-15T09:50:58.831Z,16.42
2019-05-15T09:53:28.641Z,16.47
2019-05-15T09:55:59.975Z,16.52
2019-05-15T09:58:30.324Z,16.57
2019-05-15T10:00:59.791Z,16.65
2019-05-15T10:03:29.151Z,16.72
2019-05-15T10:05:58.545Z,16.81
2019-05-15T10:08:29.204Z,16.87
2019-05-15T10:10:59.373Z,16.95
2019-05-15T10:13:29.060Z,17.00
2019-05-15T10:15:58.664Z,17.07
2019-05-15T10:18:28.349Z,17.16
2019-05-15T10:20:58.283Z,17.22
2019-05-15T10:23:29.222Z,17.27
2019-05-15T10:25:59.062Z,17.34
2019-05-15T10:28:29.297Z,17.39
2019-05-15T10:30:59.982Z,17.43
2019-05-15T10:33:29.829Z,17.47
2019-05-15T10:35:59.335Z,17.51
2019-05-15T10:38:28.769Z,17.56
2019-05-15T10:41:08.126Z,17.62
2019-05-15T10:43:29.253Z,17.71
2019-05-15T10:45:58.804Z,17.77
2019-05-15T10:48:29.462Z,17.86
2019-05-15T10:51:06.284Z,17.90
2019-05-15T10:53:30.091Z,17.95
2019-05-15T10:56:00.163Z,18.04
2019-05-15T10:58:30.560Z,18.16
2019-05-15T11:01:02.253Z,18.25
2019-05-15T11:03:34.708Z,18.34
2019-05-15T11:06:02.376Z,18.43
2019-05-15T11:08:31.781Z,18.50
2019-05-15T11:11:01.260Z,18.58
2019-05-15T11:13:30.601Z,18.67
2019-05-15T11:15:59.966Z,18.74
2019-05-15T11:18:30.732Z,18.75
2019-05-15T11:21:00.288Z,18.77
2019-05-15T11:23:29.633Z,18.82
2019-05-15T11:25:59.075Z,18.88
2019-05-15T11:28:31.749Z,18.96
2019-05-15T11:30:59.668Z,19.05
2019-05-15T11:33:29.479Z,19.10
2019-05-15T11:36:05.587Z,19.19
2019-05-15T11:38:29.907Z,19.28
2019-05-15T11:40:59.274Z,19.30
2019-05-15T11:43:29.383Z,19.36
2019-05-15T11:45:59.034Z,19.42
2019-05-15T11:48:30.036Z,19.37
2019-05-15T11:50:59.550Z,19.36
2019-05-15T11:53:28.888Z,19.34
2019-05-15T11:55:59.839Z,19.36
2019-05-15T11:58:29.350Z,19.41
2019-05-15T12:00:58.739Z,19.44
2019-05-15T12:03:29.048Z,19.49
2019-05-15T12:06:14.512Z,19.58
2019-05-15T12:08:30.592Z,19.64
2019-05-15T12:10:59.903Z,19.70
2019-05-15T12:13:29.312Z,19.77
2019-05-15T12:15:59.020Z,19.83
2019-05-15T12:18:28.737Z,19.86
2019-05-15T12:20:59.476Z,19.91
2019-05-15T12:23:29.461Z,19.95
2019-05-15T12:25:59.813Z,19.95
2019-05-15T12:28:29.810Z,19.95
2019-05-15T12:30:59.878Z,20.00
2019-05-15T12:33:29.642Z,20.14
2019-05-15T12:35:59.131Z,20.27
2019-05-15T12:38:29.104Z,20.43
2019-05-15T13:01:17.510Z,20.81
2019-05-15T13:03:38.392Z,20.91
2019-05-15T13:06:08.154Z,21.00
2019-05-15T13:08:38.461Z,21.12
2019-05-15T13:11:09.731Z,21.27
2019-05-15T13:13:39.084Z,21.47
2019-05-15T13:16:08.457Z,21.60
2019-05-15T13:18:38.799Z,21.55
2019-05-15T13:21:08.222Z,21.45
2019-05-15T13:23:38.731Z,21.52
2019-05-15T13:26:21.579Z,21.71
2019-05-15T13:28:39.299Z,21.71
2019-05-15T13:31:09.285Z,21.68
2019-05-15T13:33:38.883Z,21.68
2019-05-15T13:36:08.885Z,21.79
2019-05-15T13:38:38.475Z,22.00
2019-05-15T13:41:09.406Z,22.10
2019-05-15T13:43:38.888Z,22.15
2019-05-15T13:46:08.849Z,22.19
2019-05-15T13:48:38.732Z,22.24
2019-05-15T13:51:08.164Z,22.32
2019-05-15T13:53:38.529Z,22.45
2019-05-15T13:56:07.962Z,22.48
2019-05-15T13:58:38.807Z,22.52
2019-05-15T14:01:09.420Z,22.54
2019-05-15T14:03:39.191Z,22.64
2019-05-15T14:06:09.252Z,22.64
2019-05-15T14:08:39.286Z,22.61
2019-05-15T14:11:08.823Z,22.64
2019-05-15T14:13:39.135Z,22.66
2019-05-15T14:16:09.708Z,22.76
2019-05-15T14:18:39.297Z,22.86
2019-05-15T14:21:09.038Z,22.96
2019-05-15T14:23:38.577Z,23.10
2019-05-15T14:26:17.881Z,23.24
2019-05-15T14:28:39.082Z,23.30
2019-05-15T14:31:09.702Z,23.20
2019-05-15T14:33:39.355Z,23.30
2019-05-15T14:36:08.709Z,23.35
2019-05-15T14:38:38.069Z,23.42
2019-05-15T14:41:08.964Z,23.48
2019-05-15T14:43:38.468Z,23.34
2019-05-15T14:46:08.220Z,23.24
2019-05-15T14:48:40.795Z,23.29
2019-05-15T14:51:10.113Z,23.43
2019-05-15T14:53:39.439Z,23.53
2019-05-15T14:56:08.797Z,23.72
2019-05-15T14:58:38.853Z,23.79
2019-05-15T15:01:12.369Z,23.89
2019-05-15T15:03:39.286Z,24.07
2019-05-15T15:06:08.809Z,24.24
2019-05-15T15:08:38.137Z,24.29
2019-05-15T15:11:08.723Z,24.39
2019-05-15T15:13:38.390Z,24.53
2019-05-15T15:16:08.358Z,24.55
2019-05-15T15:18:38.595Z,24.51
2019-05-15T15:21:08.589Z,24.57
2019-05-15T15:23:38.798Z,24.57
2019-05-15T15:26:08.533Z,24.64
2019-05-15T15:28:40.077Z,24.63
2019-05-15T15:31:08.972Z,24.64
2019-05-15T15:33:39.141Z,24.69
2019-05-15T15:36:08.956Z,24.70
2019-05-15T15:38:43.745Z,24.72
2019-05-15T15:41:09.533Z,24.73
2019-05-15T15:43:38.903Z,24.80
2019-05-15T15:46:08.734Z,24.93
2019-05-15T15:48:39.148Z,25.05
2019-05-15T15:51:09.265Z,25.02
2019-05-15T15:53:39.205Z,25.18
2019-05-15T15:56:10.665Z,25.36
2019-05-15T15:58:39.796Z,25.32
2019-05-15T16:01:09.274Z,25.38
2019-05-15T16:03:38.630Z,25.61
2019-05-15T16:06:07.981Z,25.70
2019-05-15T16:08:51.290Z,25.86
2019-05-15T16:11:08.565Z,25.96
2019-05-15T16:13:38.643Z,26.07
2019-05-15T16:16:08.566Z,26.23
2019-05-15T16:18:38.506Z,26.37
2019-05-15T16:21:08.331Z,26.50
2019-05-15T16:23:38.565Z,26.67
2019-05-15T16:26:09.215Z,26.83
2019-05-15T16:28:38.989Z,26.88
2019-05-15T16:31:08.444Z,27.07
2019-05-15T16:33:39.065Z,27.28
2019-05-15T16:36:08.879Z,27.35
2019-05-15T16:38:39.047Z,27.38
2019-05-15T16:41:08.949Z,27.62
2019-05-15T16:43:38.584Z,27.83
2019-05-15T16:46:09.185Z,27.91
2019-05-15T16:48:39.095Z,28.13
2019-05-15T16:51:09.421Z,28.20
2019-05-15T16:53:39.041Z,28.14
2019-05-15T16:56:08.410Z,28.15
2019-05-15T16:58:38.474Z,28.17
2019-05-15T17:01:07.998Z,28.22
2019-05-15T17:03:38.033Z,28.24
2019-05-15T17:06:09.493Z,28.28
2019-05-15T17:08:38.595Z,28.40
2019-05-15T17:11:08.187Z,28.53
2019-05-15T17:13:39.466Z,28.65
2019-05-15T17:16:08.689Z,28.66
2019-05-15T17:18:38.236Z,28.63
2019-05-15T17:21:10.026Z,28.62
2019-05-15T17:23:38.736Z,28.64
2019-05-15T17:26:08.901Z,28.73
2019-05-15T17:28:38.453Z,28.76
2019-05-15T17:31:09.222Z,28.61
2019-05-15T17:33:38.771Z,28.49
2019-05-15T17:36:08.130Z,28.48
2019-05-15T17:38:38.164Z,28.43
2019-05-15T17:41:08.299Z,28.43
2019-05-15T17:43:38.011Z,28.45
2019-05-15T17:46:08.849Z,28.43
2019-05-15T17:48:38.991Z,28.31
2019-05-15T17:51:09.115Z,28.30
2019-05-15T17:53:38.772Z,28.29
2019-05-15T17:56:08.167Z,28.20
2019-05-15T17:58:38.100Z,27.98
2019-05-15T18:01:08.852Z,27.90
2019-05-15T18:03:39.302Z,27.71
2019-05-15T18:06:08.889Z,27.34
2019-05-15T18:08:39.190Z,26.78
2019-05-15T18:11:08.622Z,26.40
2019-05-15T18:13:38.306Z,26.06
2019-05-15T18:16:13.310Z,25.76
2019-05-15T18:18:38.767Z,25.52
2019-05-15T18:21:08.787Z,25.24
2019-05-15T18:23:39.020Z,25.09
2019-05-15T18:26:09.035Z,25.01
2019-05-15T18:28:38.947Z,24.86
2019-05-15T18:31:08.914Z,24.71
2019-05-15T18:33:51.945Z,24.64
2019-05-15T18:36:09.968Z,24.65
2019-05-15T18:38:39.599Z,24.68
2019-05-15T18:41:09.209Z,24.58
2019-05-15T18:43:38.610Z,24.49
2019-05-15T18:46:09.017Z,24.43
2019-05-15T18:48:41.559Z,24.34
2019-05-15T18:51:10.934Z,24.20
2019-05-15T18:53:40.583Z,23.98
2019-05-15T18:56:09.939Z,23.78
2019-05-15T18:58:39.320Z,23.55
2019-05-15T19:01:09.318Z,23.36
2019-05-15T19:03:38.999Z,23.13
2019-05-15T19:06:08.961Z,22.92
2019-05-15T19:08:38.864Z,22.72
2019-05-15T19:11:08.378Z,22.49
2019-05-15T19:13:38.992Z,22.29
2019-05-15T19:16:08.481Z,22.08
2019-05-15T19:18:38.493Z,21.92
2019-05-15T19:21:08.164Z,21.75
2019-05-15T19:23:38.088Z,21.58
2019-05-15T19:26:11.617Z,21.43
2019-05-15T19:28:39.606Z,21.26
2019-05-15T19:31:09.082Z,21.11
2019-05-15T19:33:41.118Z,20.96
2019-05-15T19:36:09.498Z,20.83
2019-05-15T19:38:38.830Z,20.67
2019-05-15T19:41:09.686Z,20.54
2019-05-15T19:43:39.057Z,20.37
2019-05-15T19:46:08.422Z,20.20
2019-05-15T19:48:38.620Z,20.06
2019-05-15T19:51:08.998Z,19.92
2019-05-15T19:53:38.568Z,19.78
2019-05-15T19:56:08.512Z,19.64
2019-05-15T19:58:37.903Z,19.53
2019-05-15T20:01:08.135Z,19.40
2019-05-15T20:03:49.682Z,19.26
2019-05-15T20:06:08.623Z,19.17
2019-05-15T20:08:38.549Z,19.05
2019-05-15T20:11:10.375Z,18.92
2019-05-15T20:13:39.176Z,18.81
2019-05-15T20:16:08.545Z,18.71
2019-05-15T20:18:38.609Z,18.61
2019-05-15T20:21:08.909Z,18.52
2019-05-15T20:23:38.371Z,18.42
2019-05-15T20:26:08.388Z,18.33
2019-05-15T20:28:39.173Z,18.26
2019-05-15T20:31:08.821Z,18.15
2019-05-15T20:33:38.179Z,18.03
2019-05-15T20:36:09.081Z,17.95
2019-05-15T20:38:40.464Z,17.89
2019-05-15T20:41:09.923Z,17.82
2019-05-15T20:43:39.670Z,17.75
2019-05-15T20:46:09.028Z,17.72
2019-05-15T20:48:38.409Z,17.65
2019-05-15T20:51:07.764Z,17.57
2019-05-15T20:53:38.058Z,17.50
2019-05-15T20:56:08.333Z,17.44
2019-05-15T20:58:38.294Z,17.35
2019-05-15T21:01:09.168Z,17.26
2019-05-15T21:03:38.758Z,17.17
2019-05-15T21:06:08.859Z,17.08
2019-05-15T21:08:39.203Z,17.01
2019-05-15T21:11:11.857Z,16.95
2019-05-15T21:13:39.631Z,16.90
2019-05-15T21:16:09.414Z,16.84
2019-05-15T21:18:41.412Z,16.77
2019-05-15T21:21:10.470Z,16.67
2019-05-15T21:23:40.081Z,16.60
2019-05-15T21:26:11.094Z,16.54
2019-05-15T21:28:40.676Z,16.53
2019-05-15T21:31:10.468Z,16.51
2019-05-15T21:33:39.770Z,16.51
2019-05-15T21:36:09.113Z,16.47
2019-05-15T21:38:38.925Z,16.47
2019-05-15T21:41:08.405Z,16.43
2019-05-15T21:43:37.765Z,16.40
2019-05-15T21:46:08.478Z,16.39
2019-05-15T21:48:38.345Z,16.36
2019-05-15T21:51:11.335Z,16.32
2019-05-15T21:53:38.993Z,16.25
2019-05-15T21:56:08.405Z,16.18
2019-05-15T21:58:37.841Z,16.15
2019-05-15T22:01:10.512Z,16.13
2019-05-15T22:03:40.175Z,16.11
2019-05-15T22:06:09.540Z,16.07
2019-05-15T22:08:38.861Z,16.04
2019-05-15T22:11:08.217Z,16.01
2019-05-15T22:13:39.294Z,15.98
2019-05-15T22:16:08.879Z,15.92
2019-05-15T22:18:38.545Z,15.88
2019-05-15T22:21:08.068Z,15.83
2019-05-15T22:23:38.415Z,15.79
2019-05-15T22:26:07.949Z,15.70
2019-05-15T22:28:38.605Z,15.63
2019-05-15T22:31:08.849Z,15.59
2019-05-15T22:33:38.412Z,15.55
2019-05-15T22:36:08.458Z,15.53
2019-05-15T22:38:37.947Z,15.48
2019-05-15T22:41:10.212Z,15.47
2019-05-15T22:43:39.246Z,15.43
2019-05-15T22:46:10.968Z,15.36
2019-05-15T22:48:39.832Z,15.34
2019-05-15T22:51:09.193Z,15.32
2019-05-15T22:53:38.512Z,15.25
2019-05-15T22:56:09.317Z,15.22
2019-05-15T22:58:38.899Z,15.22
2019-05-15T23:01:09.150Z,15.22
2019-05-15T23:03:39.307Z,15.22
2019-05-15T23:06:08.988Z,15.17
2019-05-15T23:08:38.683Z,15.15
2019-05-15T23:11:09.545Z,15.10
2019-05-15T23:13:39.185Z,15.08
2019-05-15T23:16:08.517Z,15.08
2019-05-15T23:18:37.876Z,15.03
2019-05-15T23:21:08.829Z,14.99
2019-05-15T23:23:38.276Z,14.93
2019-05-15T23:26:07.617Z,14.86
2019-05-15T23:28:38.627Z,14.80
2019-05-15T23:31:08.398Z,14.77
2019-05-15T23:33:38.739Z,14.77
2019-05-15T23:36:08.244Z,14.76
2019-05-15T23:38:38.481Z,14.75
2019-05-15T23:41:08.327Z,14.75
2019-05-15T23:43:38.899Z,14.73
2019-05-15T23:46:08.505Z,14.71
2019-05-15T23:48:38.309Z,14.67
2019-05-15T23:51:08.571Z,14.66
2019-05-15T23:53:38.097Z,14.67
2019-05-15T23:56:09.326Z,14.67
2019-05-15T23:58:38.509Z,14.67
